createdAt,value
2018-04-24T00:01:10.540Z,84.60
2018-04-24T00:03:38.067Z,85.00
2018-04-24T00:06:05.581Z,84.90
2018-04-24T00:08:33.104Z,84.30
2018-04-24T00:11:00.620Z,85.00
2018-04-24T00:13:28.150Z,85.00
2018-04-24T00:15:56.428Z,85.10
2018-04-24T00:18:23.984Z,85.10
2018-04-24T00:20:52.266Z,85.10
2018-04-24T00:23:20.546Z,85.40
2018-04-24T00:25:48.848Z,84.80
2018-04-24T00:28:16.367Z,84.80
2018-04-24T00:30:43.896Z,85.40
2018-04-24T00:33:11.409Z,86.00
2018-04-24T00:35:39.728Z,87.00
2018-04-24T00:38:07.238Z,86.40
2018-04-24T00:40:34.726Z,86.70
2018-04-24T00:43:03.030Z,87.00
2018-04-24T00:45:30.603Z,86.80
2018-04-24T00:47:58.152Z,86.60
2018-04-24T00:50:25.705Z,86.80
2018-04-24T00:52:53.228Z,87.20
2018-04-24T00:55:20.749Z,87.20
2018-04-24T01:00:25.487Z,87.20
2018-04-24T01:02:53.767Z,87.00
2018-04-24T01:05:22.059Z,87.50
2018-04-24T01:07:49.587Z,87.50
2018-04-24T01:10:17.132Z,87.50
2018-04-24T01:12:44.642Z,87.70
2018-04-24T01:15:12.913Z,87.70
2018-04-24T01:17:41.197Z,87.20
2018-04-24T01:20:09.475Z,87.40
2018-04-24T01:22:37.783Z,87.70
2018-04-24T01:25:05.308Z,87.70
2018-04-24T01:27:32.839Z,87.40
2018-04-24T01:30:00.339Z,88.10
2018-04-24T01:32:27.859Z,87.80
2018-04-24T01:34:55.399Z,88.00
2018-04-24T01:37:22.920Z,88.00
2018-04-24T01:39:50.439Z,87.70
2018-04-24T01:42:17.949Z,87.80
2018-04-24T01:44:45.559Z,88.20
2018-04-24T01:47:13.076Z,87.40
2018-04-24T01:49:40.626Z,87.50
2018-04-24T01:52:08.132Z,87.60
2018-04-24T01:54:36.404Z,87.60
2018-04-24T01:57:04.710Z,87.90
2018-04-24T01:59:32.278Z,87.80
2018-04-24T02:01:59.794Z,87.50
2018-04-24T02:04:28.088Z,87.20
2018-04-24T02:06:56.379Z,87.10
2018-04-24T02:09:24.664Z,87.30
2018-04-24T02:11:52.971Z,87.00
2018-04-24T02:14:20.488Z,86.90
2018-04-24T02:16:48.765Z,86.50
2018-04-24T02:19:17.786Z,86.90
2018-04-24T02:21:46.071Z,87.00
2018-04-24T02:24:14.363Z,87.70
2018-04-24T02:26:41.885Z,87.70
2018-04-24T02:29:09.411Z,87.30
2018-04-24T02:31:36.917Z,87.00
2018-04-24T02:34:04.447Z,87.10
2018-04-24T02:36:31.970Z,87.90
2018-04-24T02:39:00.241Z,87.30
2018-04-24T02:41:28.518Z,87.00
2018-04-24T02:43:56.796Z,86.90
2018-04-24T02:46:25.092Z,86.50
2018-04-24T02:48:53.390Z,85.80
2018-04-24T02:51:20.917Z,85.80
2018-04-24T02:53:48.428Z,86.70
2018-04-24T02:56:15.948Z,87.40
2018-04-24T02:58:44.246Z,87.00
2018-04-24T03:01:12.555Z,85.80
2018-04-24T03:03:40.079Z,85.80
2018-04-24T03:06:08.415Z,86.40
2018-04-24T03:08:35.955Z,86.30
2018-04-24T03:11:03.469Z,87.00
2018-04-24T03:13:30.976Z,86.50
2018-04-24T03:15:58.492Z,87.10
2018-04-24T03:18:26.006Z,86.90
2018-04-24T03:20:53.532Z,87.00
2018-04-24T03:23:21.819Z,86.40
2018-04-24T03:25:50.120Z,86.30
2018-04-24T03:28:17.624Z,86.10
2018-04-24T03:30:45.165Z,86.10
2018-04-24T03:33:12.688Z,86.40
2018-04-24T03:35:40.204Z,86.30
2018-04-24T03:38:07.753Z,86.40
2018-04-24T03:40:35.316Z,86.00
2018-04-24T03:43:02.844Z,86.70
2018-04-24T03:45:30.363Z,86.10
2018-04-24T03:47:57.896Z,86.00
2018-04-24T03:50:25.429Z,86.20
2018-04-24T03:52:52.944Z,86.60
2018-04-24T03:55:20.474Z,86.60
2018-04-24T03:57:48.744Z,87.00
2018-04-24T04:00:17.036Z,87.00
2018-04-24T04:02:45.346Z,86.70
2018-04-24T04:05:12.938Z,86.70
2018-04-24T04:07:40.515Z,86.60
2018-04-24T04:10:08.012Z,87.00
2018-04-24T04:12:36.287Z,87.20
2018-04-24T04:15:04.564Z,87.40
2018-04-24T04:17:43.755Z,87.40
2018-04-24T04:20:23.122Z,87.30
2018-04-24T04:23:02.684Z,87.70
2018-04-24T04:25:31.185Z,87.10
2018-04-24T04:27:59.101Z,87.00
2018-04-24T04:30:27.401Z,87.00
2018-04-24T04:32:55.698Z,86.60
2018-04-24T04:35:24.003Z,86.10
2018-04-24T04:37:52.129Z,86.00
2018-04-24T04:40:19.632Z,86.20
2018-04-24T04:42:47.156Z,86.90
2018-04-24T04:45:14.676Z,86.70
2018-04-24T04:47:42.206Z,87.10
2018-04-24T04:50:10.497Z,87.10
2018-04-24T04:52:38.771Z,87.30
2018-04-24T04:55:07.187Z,87.80
2018-04-24T04:57:34.697Z,88.20
2018-04-24T05:00:02.227Z,88.30
2018-04-24T05:02:29.771Z,89.10
2018-04-24T05:04:57.301Z,88.70
2018-04-24T05:07:25.610Z,88.60
2018-04-24T05:09:53.182Z,88.50
2018-04-24T05:12:20.713Z,89.00
2018-04-24T05:14:48.990Z,88.50
2018-04-24T05:17:17.304Z,88.70
2018-04-24T05:19:44.822Z,88.70
2018-04-24T05:22:12.352Z,88.90
2018-04-24T05:24:39.895Z,88.40
2018-04-24T05:27:07.410Z,88.50
2018-04-24T05:29:35.710Z,88.90
2018-04-24T05:32:03.214Z,88.90
2018-04-24T05:34:30.742Z,89.20
2018-04-24T05:36:59.008Z,90.00
2018-04-24T05:39:26.551Z,90.00
2018-04-24T05:41:54.060Z,89.90
2018-04-24T05:44:21.571Z,90.10
2018-04-24T05:46:49.097Z,90.10
2018-04-24T05:49:16.612Z,90.00
2018-04-24T05:51:44.148Z,90.00
2018-04-24T05:54:11.679Z,89.80
2018-04-24T05:56:39.967Z,90.20
2018-04-24T05:59:07.485Z,90.20
2018-04-24T06:01:35.018Z,90.10
2018-04-24T06:04:02.534Z,90.00
2018-04-24T06:06:30.066Z,90.10
2018-04-24T06:08:57.616Z,90.20
2018-04-24T06:11:25.130Z,90.30
2018-04-24T06:13:53.420Z,90.40
2018-04-24T06:16:21.718Z,90.50
2018-04-24T06:18:50.021Z,90.50
2018-04-24T06:21:17.551Z,90.50
2018-04-24T06:23:45.838Z,90.40
2018-04-24T06:26:13.380Z,90.40
2018-04-24T06:28:41.695Z,90.40
2018-04-24T06:31:09.977Z,90.50
2018-04-24T06:33:37.514Z,90.50
2018-04-24T06:36:05.841Z,90.50
2018-04-24T06:38:33.357Z,90.70
2018-04-24T06:41:01.647Z,90.60
2018-04-24T06:43:29.954Z,90.40
2018-04-24T06:45:57.491Z,90.40
2018-04-24T06:48:25.785Z,89.90
2018-04-24T06:50:53.303Z,89.80
2018-04-24T06:53:20.813Z,89.60
2018-04-24T06:55:48.348Z,90.10
2018-04-24T06:58:15.884Z,90.10
2018-04-24T07:00:43.503Z,90.00
2018-04-24T07:03:10.982Z,89.40
2018-04-24T07:05:38.502Z,89.00
2018-04-24T07:08:06.805Z,88.70
2018-04-24T07:10:34.321Z,88.70
2018-04-24T07:13:01.882Z,86.20
2018-04-24T07:15:29.398Z,87.40
2018-04-24T07:17:56.981Z,85.20
2018-04-24T07:20:24.508Z,86.10
2018-04-24T07:22:52.781Z,84.50
2018-04-24T07:25:20.312Z,84.10
2018-04-24T07:27:47.830Z,83.90
2018-04-24T07:30:16.134Z,81.20
2018-04-24T07:32:43.658Z,81.20
2018-04-24T07:35:11.952Z,79.80
2018-04-24T07:37:40.236Z,78.10
2018-04-24T07:40:08.533Z,79.60
2018-04-24T07:42:36.057Z,79.60
2018-04-24T07:45:03.581Z,82.30
2018-04-24T07:47:31.116Z,76.90
2018-04-24T07:49:58.631Z,79.20
2018-04-24T07:52:26.155Z,77.20
2018-04-24T07:54:53.678Z,76.80
2018-04-24T07:57:21.224Z,76.70
2018-04-24T07:59:48.726Z,74.80
2018-04-24T08:02:17.002Z,74.90
2018-04-24T08:04:45.292Z,74.60
2018-04-24T08:07:13.559Z,74.70
2018-04-24T08:09:41.852Z,72.30
2018-04-24T08:12:10.150Z,73.40
2018-04-24T08:14:37.674Z,73.90
2018-04-24T08:17:05.183Z,73.60
2018-04-24T08:19:32.706Z,72.80
2018-04-24T08:22:01.016Z,73.70
2018-04-24T08:24:28.539Z,73.70
2018-04-24T08:26:56.843Z,71.70
2018-04-24T08:29:25.123Z,71.70
2018-04-24T08:31:53.416Z,72.30
2018-04-24T08:34:21.679Z,73.10
2018-04-24T08:36:49.986Z,69.10
2018-04-24T08:39:18.285Z,71.00
2018-04-24T08:41:45.796Z,70.90
2018-04-24T08:44:13.347Z,73.20
2018-04-24T08:46:40.857Z,75.00
2018-04-24T08:49:08.404Z,69.30
2018-04-24T08:51:35.937Z,70.00
2018-04-24T08:54:03.461Z,68.50
2018-04-24T08:56:31.163Z,68.80
2018-04-24T08:58:58.531Z,68.90
2018-04-24T09:01:26.061Z,70.90
2018-04-24T09:03:53.583Z,69.80
2018-04-24T09:06:21.890Z,66.80
2018-04-24T09:08:49.410Z,66.80
2018-04-24T09:11:16.917Z,66.40
2018-04-24T09:13:44.456Z,67.30
2018-04-24T09:16:12.733Z,67.60
2018-04-24T09:18:41.036Z,68.10
2018-04-24T09:21:08.554Z,67.50
2018-04-24T09:23:36.103Z,69.10
2018-04-24T09:26:03.637Z,68.10
2018-04-24T09:28:31.149Z,68.00
2018-04-24T09:30:58.678Z,68.40
2018-04-24T09:33:26.278Z,64.90
2018-04-24T09:35:53.745Z,64.40
2018-04-24T09:38:21.263Z,64.70
2018-04-24T09:40:48.798Z,65.60
2018-04-24T09:43:17.075Z,64.60
2018-04-24T09:45:45.385Z,65.20
2018-04-24T09:48:12.931Z,65.10
2018-04-24T09:50:40.467Z,63.30
2018-04-24T09:53:08.775Z,61.60
2018-04-24T09:55:37.050Z,62.50
2018-04-24T09:58:05.351Z,63.10
2018-04-24T10:00:36.646Z,63.10
2018-04-24T10:03:04.163Z,65.20
2018-04-24T10:05:31.686Z,65.20
2018-04-24T10:07:59.197Z,66.70
2018-04-24T10:10:26.745Z,63.40
2018-04-24T10:12:54.270Z,62.10
2018-04-24T10:15:21.799Z,61.40
2018-04-24T10:17:49.307Z,62.00
2018-04-24T10:20:16.837Z,60.60
2018-04-24T10:22:44.361Z,60.80
2018-04-24T10:25:12.674Z,60.90
2018-04-24T10:27:40.185Z,60.90
2018-04-24T10:30:08.476Z,60.20
2018-04-24T10:32:36.759Z,59.20
2018-04-24T10:35:05.058Z,59.80
2018-04-24T10:37:32.615Z,59.80
2018-04-24T10:40:00.104Z,57.60
2018-04-24T10:42:27.624Z,57.80
2018-04-24T10:44:55.898Z,58.20
2018-04-24T10:47:23.431Z,58.20
2018-04-24T10:49:50.950Z,60.60
2018-04-24T10:52:19.246Z,57.90
2018-04-24T10:54:46.837Z,57.80
2018-04-24T10:57:14.350Z,58.70
2018-04-24T10:59:42.641Z,56.70
2018-04-24T11:02:10.165Z,56.60
2018-04-24T11:04:37.720Z,57.70
2018-04-24T11:07:05.229Z,54.20
2018-04-24T11:09:33.498Z,54.60
2018-04-24T11:12:01.789Z,54.00
2018-04-24T11:14:30.061Z,54.60
2018-04-24T11:16:58.356Z,54.10
2018-04-24T11:19:26.638Z,55.60
2018-04-24T11:21:54.176Z,55.60
2018-04-24T11:24:21.704Z,53.00
2018-04-24T11:26:49.277Z,52.90
2018-04-24T11:29:16.778Z,50.60
2018-04-24T11:31:45.056Z,50.60
2018-04-24T11:34:13.353Z,51.30
2018-04-24T11:36:40.949Z,51.10
2018-04-24T11:39:09.196Z,52.20
2018-04-24T11:41:38.450Z,49.20
2018-04-24T11:44:05.957Z,49.10
2018-04-24T11:46:34.261Z,49.40
2018-04-24T11:49:01.780Z,49.30
2018-04-24T11:51:29.304Z,53.30
2018-04-24T11:53:56.809Z,49.90
2018-04-24T11:56:24.459Z,52.00
2018-04-24T11:58:51.973Z,51.20
2018-04-24T12:01:26.208Z,51.90
2018-04-24T12:03:53.738Z,50.90
2018-04-24T12:06:22.013Z,50.80
2018-04-24T12:08:50.328Z,51.40
2018-04-24T12:11:17.843Z,51.20
2018-04-24T12:13:45.380Z,54.20
2018-04-24T12:16:12.891Z,53.80
2018-04-24T12:18:41.205Z,48.30
2018-04-24T12:21:08.727Z,48.30
2018-04-24T12:23:37.005Z,49.40
2018-04-24T12:26:04.533Z,48.60
2018-04-24T12:28:32.053Z,46.00
2018-04-24T12:30:59.605Z,49.40
2018-04-24T12:33:27.895Z,46.20
2018-04-24T12:35:56.230Z,46.20
2018-04-24T12:38:23.757Z,46.20
2018-04-24T12:40:51.286Z,47.90
2018-04-24T12:43:18.821Z,46.70
2018-04-24T12:45:46.348Z,43.70
2018-04-24T12:48:13.894Z,45.20
2018-04-24T12:50:42.179Z,44.10
2018-04-24T12:53:10.484Z,45.50
2018-04-24T12:55:37.997Z,45.40
2018-04-24T12:58:05.541Z,43.50
2018-04-24T13:00:33.058Z,43.50
2018-04-24T13:03:00.575Z,43.00
2018-04-24T13:05:28.145Z,43.80
2018-04-24T13:07:55.661Z,44.50
2018-04-24T13:10:23.184Z,43.60
2018-04-24T13:12:50.729Z,41.60
2018-04-24T13:15:18.245Z,42.40
2018-04-24T13:17:45.774Z,42.30
2018-04-24T13:20:13.281Z,44.70
2018-04-24T13:22:40.784Z,40.70
2018-04-24T13:25:08.325Z,41.30
2018-04-24T13:27:35.843Z,41.30
2018-04-24T13:30:04.136Z,40.80
2018-04-24T13:32:32.390Z,40.60
2018-04-24T13:34:59.951Z,40.60
2018-04-24T13:37:27.460Z,41.00
2018-04-24T13:39:54.974Z,41.40
2018-04-24T13:42:22.514Z,43.30
2018-04-24T13:44:50.046Z,42.30
2018-04-24T13:47:17.555Z,40.60
2018-04-24T13:49:45.080Z,41.50
2018-04-24T13:52:12.623Z,42.90
2018-04-24T13:54:40.928Z,40.60
2018-04-24T13:57:08.458Z,40.50
2018-04-24T13:59:36.754Z,41.60
2018-04-24T14:02:05.057Z,40.50
2018-04-24T14:04:32.648Z,40.40
2018-04-24T14:07:00.178Z,41.00
2018-04-24T14:09:27.718Z,40.80
2018-04-24T14:11:55.997Z,42.10
2018-04-24T14:14:24.287Z,42.30
2018-04-24T14:16:52.600Z,43.00
2018-04-24T14:19:20.870Z,43.10
2018-04-24T14:21:48.507Z,43.00
2018-04-24T14:24:15.945Z,40.20
2018-04-24T14:26:43.481Z,42.20
2018-04-24T14:29:10.999Z,40.90
2018-04-24T14:31:42.477Z,41.20
2018-04-24T14:34:12.845Z,41.10
2018-04-24T14:36:40.505Z,41.90
2018-04-24T14:39:08.037Z,42.20
2018-04-24T14:41:35.554Z,43.20
2018-04-24T14:44:03.895Z,42.20
2018-04-24T14:46:31.408Z,42.30
2018-04-24T14:48:59.711Z,42.10
2018-04-24T14:51:28.009Z,43.30
2018-04-24T14:53:55.523Z,43.20
2018-04-24T14:56:23.048Z,42.00
2018-04-24T14:58:50.556Z,40.30
2018-04-24T15:01:18.105Z,41.20
2018-04-24T15:03:45.656Z,41.10
2018-04-24T15:06:13.168Z,42.50
2018-04-24T15:08:41.464Z,42.00
2018-04-24T15:11:08.984Z,42.00
2018-04-24T15:13:36.534Z,40.50
2018-04-24T15:16:04.048Z,42.10
2018-04-24T15:18:32.343Z,42.10
2018-04-24T15:20:59.883Z,42.20
2018-04-24T15:23:28.201Z,39.70
2018-04-24T15:25:55.724Z,39.70
2018-04-24T15:28:24.021Z,41.30
2018-04-24T15:30:51.561Z,41.30
2018-04-24T15:33:19.083Z,41.50
2018-04-24T15:35:46.615Z,41.30
2018-04-24T15:38:14.135Z,42.40
2018-04-24T15:40:42.452Z,41.50
2018-04-24T15:43:10.747Z,40.70
2018-04-24T15:45:38.268Z,40.80
2018-04-24T15:48:05.847Z,41.90
2018-04-24T15:50:33.328Z,42.60
2018-04-24T15:53:00.860Z,41.70
2018-04-24T15:55:29.879Z,41.70
2018-04-24T15:57:58.175Z,43.70
2018-04-24T16:00:25.699Z,43.60
2018-04-24T16:02:53.249Z,44.10
2018-04-24T16:05:20.764Z,45.00
2018-04-24T16:07:48.303Z,42.80
2018-04-24T16:10:16.597Z,43.60
2018-04-24T16:12:44.872Z,43.20
2018-04-24T16:15:13.180Z,43.30
2018-04-24T16:17:40.745Z,43.20
2018-04-24T16:20:08.259Z,42.30
2018-04-24T16:22:35.795Z,41.90
2018-04-24T16:25:03.327Z,42.10
2018-04-24T16:27:30.858Z,43.80
2018-04-24T16:29:58.473Z,42.60
2018-04-24T16:32:25.999Z,42.70
2018-04-24T16:34:54.289Z,42.80
2018-04-24T16:37:22.600Z,42.70
2018-04-24T16:39:50.118Z,42.70
2018-04-24T16:42:17.658Z,42.00
2018-04-24T16:44:45.175Z,42.00
2018-04-24T16:47:12.703Z,42.60
2018-04-24T16:49:40.234Z,41.90
2018-04-24T16:52:07.761Z,41.20
2018-04-24T16:54:36.067Z,38.80
2018-04-24T16:57:03.590Z,38.90
2018-04-24T16:59:31.926Z,36.40
2018-04-24T17:01:59.440Z,36.30
2018-04-24T17:04:27.721Z,36.20
2018-04-24T17:06:56.019Z,38.60
2018-04-24T17:09:23.533Z,38.60
2018-04-24T17:11:51.059Z,38.60
2018-04-24T17:14:18.625Z,40.20
2018-04-24T17:16:46.195Z,40.90
2018-04-24T17:19:14.569Z,42.30
2018-04-24T17:21:42.093Z,42.40
2018-04-24T17:24:09.633Z,42.40
2018-04-24T17:26:37.151Z,44.00
2018-04-24T17:29:04.682Z,43.00
2018-04-24T17:31:32.228Z,43.50
2018-04-24T17:33:59.826Z,44.30
2018-04-24T17:36:28.173Z,45.10
2018-04-24T17:38:55.730Z,45.00
2018-04-24T17:41:23.587Z,46.00
2018-04-24T17:43:51.183Z,46.90
2018-04-24T17:46:19.483Z,47.20
2018-04-24T17:48:47.808Z,47.20
2018-04-24T17:51:15.331Z,47.10
2018-04-24T17:53:43.665Z,47.00
2018-04-24T17:56:11.713Z,46.90
2018-04-24T17:58:39.300Z,47.20
2018-04-24T18:01:06.865Z,48.70
2018-04-24T18:03:34.463Z,49.50
2018-04-24T18:06:02.204Z,49.90
2018-04-24T18:08:29.759Z,48.40
2018-04-24T18:10:57.346Z,48.80
2018-04-24T18:13:24.949Z,49.20
2018-04-24T18:15:53.338Z,50.30
2018-04-24T18:18:20.981Z,50.30
2018-04-24T18:20:48.572Z,50.70
2018-04-24T18:23:16.436Z,49.70
2018-04-24T18:25:44.737Z,50.20
2018-04-24T18:28:12.345Z,49.60
2018-04-24T18:30:40.807Z,50.40
2018-04-24T18:33:08.437Z,50.10
2018-04-24T18:35:36.780Z,51.80
2018-04-24T18:38:04.417Z,51.80
2018-04-24T18:40:32.065Z,51.50
2018-04-24T18:43:00.351Z,51.80
2018-04-24T18:45:27.954Z,51.40
2018-04-24T18:47:55.708Z,51.90
2018-04-24T18:50:23.486Z,51.30
2018-04-24T18:52:51.259Z,52.30
2018-04-24T18:55:19.124Z,53.40
2018-04-24T18:57:46.987Z,53.50
2018-04-24T19:00:14.873Z,54.50
2018-04-24T19:02:42.878Z,54.20
2018-04-24T19:05:12.449Z,55.00
2018-04-24T19:07:40.317Z,54.50
2018-04-24T19:10:08.196Z,54.40
2018-04-24T19:12:36.133Z,53.80
2018-04-24T19:15:04.757Z,55.00
2018-04-24T19:17:32.622Z,55.00
2018-04-24T19:20:01.382Z,54.90
2018-04-24T19:22:30.104Z,55.60
2018-04-24T19:25:17.671Z,55.40
2018-04-24T19:27:47.100Z,56.10
2018-04-24T19:30:14.911Z,56.00
2018-04-24T19:32:42.829Z,55.90
2018-04-24T19:35:11.250Z,57.20
2018-04-24T19:37:39.069Z,57.00
2018-04-24T19:40:12.872Z,57.60
2018-04-24T19:42:40.454Z,58.60
2018-04-24T19:45:09.004Z,58.60
2018-04-24T19:47:36.761Z,58.70
2018-04-24T19:50:10.143Z,59.30
2018-04-24T19:52:37.804Z,59.60
2018-04-24T19:55:11.038Z,59.80
2018-04-24T19:57:38.677Z,60.00
2018-04-24T20:00:06.324Z,60.10
2018-04-24T20:02:33.930Z,60.40
2018-04-24T20:05:02.498Z,60.50
2018-04-24T20:07:30.129Z,60.20
2018-04-24T20:09:58.710Z,60.30
2018-04-24T20:12:27.109Z,60.40
2018-04-24T20:14:54.678Z,60.40
2018-04-24T20:17:22.369Z,60.50
2018-04-24T20:19:49.918Z,60.70
2018-04-24T20:22:17.445Z,60.60
2018-04-24T20:24:45.004Z,60.60
2018-04-24T20:27:12.542Z,60.70
2018-04-24T20:29:40.107Z,61.00
2018-04-24T20:32:07.645Z,61.00
2018-04-24T20:34:35.176Z,61.10
2018-04-24T20:37:03.476Z,61.40
2018-04-24T20:39:31.047Z,61.30
2018-04-24T20:41:58.579Z,61.30
2018-04-24T20:44:26.918Z,61.20
2018-04-24T20:46:54.484Z,61.20
2018-04-24T20:49:21.990Z,61.20
2018-04-24T20:51:50.292Z,60.80
2018-04-24T20:54:18.610Z,60.90
2018-04-24T20:56:46.147Z,60.90
2018-04-24T20:59:13.708Z,61.60
2018-04-24T21:01:41.236Z,62.70
2018-04-24T21:04:08.783Z,62.90
2018-04-24T21:06:36.301Z,63.70
2018-04-24T21:09:03.884Z,64.30
2018-04-24T21:11:31.405Z,64.20
2018-04-24T21:13:58.920Z,63.60
2018-04-24T21:16:26.458Z,62.60
2018-04-24T21:18:53.992Z,64.20
2018-04-24T21:21:21.535Z,63.30
2018-04-24T21:23:49.054Z,64.00
2018-04-24T21:26:16.623Z,63.80
2018-04-24T21:28:44.185Z,64.00
2018-04-24T21:31:11.701Z,64.30
2018-04-24T21:33:39.238Z,65.40
2018-04-24T21:36:06.761Z,65.30
2018-04-24T21:38:35.083Z,64.20
2018-04-24T21:41:02.608Z,64.10
2018-04-24T21:43:30.927Z,63.80
2018-04-24T21:45:58.439Z,63.80
2018-04-24T21:48:26.721Z,63.00
2018-04-24T21:50:55.011Z,63.40
2018-04-24T21:53:23.288Z,64.90
2018-04-24T21:55:51.594Z,65.00
2018-04-24T21:58:19.106Z,65.00
2018-04-24T22:00:46.622Z,64.80
2018-04-24T22:03:14.148Z,64.90
2018-04-24T22:05:42.437Z,65.50
2018-04-24T22:08:10.730Z,64.60
2018-04-24T22:10:39.010Z,63.60
2018-04-24T22:13:07.296Z,64.20
2018-04-24T22:15:34.811Z,64.20
2018-04-24T22:18:02.333Z,64.10
2018-04-24T22:20:29.844Z,63.80
2018-04-24T22:22:57.361Z,63.80
2018-04-24T22:25:24.889Z,64.50
2018-04-24T22:27:52.417Z,64.00
2018-04-24T22:30:19.927Z,65.00
2018-04-24T22:32:48.210Z,65.10
2018-04-24T22:35:16.481Z,64.50
2018-04-24T22:37:44.015Z,64.50
2018-04-24T22:40:11.533Z,65.10
2018-04-24T22:42:39.066Z,65.20
2018-04-24T22:45:07.337Z,65.30
2018-04-24T22:47:34.870Z,65.40
2018-04-24T22:50:02.380Z,64.80
2018-04-24T22:52:30.659Z,65.60
2018-04-24T22:54:58.247Z,65.50
2018-04-24T22:57:25.777Z,66.60
2018-04-24T22:59:53.303Z,65.80
2018-04-24T23:02:20.831Z,65.50
2018-04-24T23:04:49.132Z,65.10
2018-04-24T23:07:16.641Z,65.10
2018-04-24T23:09:53.796Z,65.30
2018-04-24T23:12:33.215Z,65.50
2018-04-24T23:15:12.584Z,65.50
2018-04-24T23:17:51.936Z,66.00
2018-04-24T23:20:18.986Z,66.30
2018-04-24T23:22:46.517Z,66.30
2018-04-24T23:25:14.034Z,67.00
2018-04-24T23:27:42.340Z,66.90
2018-04-24T23:30:09.850Z,67.40
2018-04-24T23:32:37.382Z,66.50
2018-04-24T23:35:04.889Z,66.80
2018-04-24T23:37:32.412Z,67.50
2018-04-24T23:39:59.927Z,66.90
2018-04-24T23:42:27.452Z,67.00
2018-04-24T23:44:54.979Z,66.80
2018-04-24T23:47:22.520Z,66.90
2018-04-24T23:49:50.805Z,67.10
2018-04-24T23:52:19.121Z,66.70
2018-04-24T23:54:46.723Z,66.70
2018-04-24T23:57:14.187Z,66.80
2018-04-24T23:59:41.707Z,66.40
